Latest Weather Observations for Braidwood

IDN60901

Issued at 9:51 pm EDT Saturday 25 January 2020 (issued every 10 minutes, with the page automatically refreshed every 10 minutes)

About weather observations | Map of Canberra area stations | Latest observations for Canberra area | Other Formats
Station Details ID: 069132 Name: BRAIDWOOD RACECOURSE AWS Lat: -35.43 Lon: 149.78 Height: 665.2 m
Data from the previous 72 hours. | See also: Recent months at Braidwood
Date/Time
EDT
Temp
°C
App
Temp
°C
Dew
Point
°C
Rel
Hum
%
Delta-T
°C
Wind Press
QNH
hPa
Press
MSL
hPa
Rain since
9am
mm
Dir  Spd
km/h
Gust
km/h
Spd
kts
Gust
kts
25/09:30pm 20.9 22.5 17.9 83 1.9 SE 6 7 3 4 1015.2 1012.2 0.0
25/09:00pm 21.3 22.6 17.5 79 2.4 SE 7 9 4 5 1014.8 1011.8 0.0
25/08:30pm 22.1 23.0 17.5 75 2.9 SE 9 13 5 7 1014.7 1011.7 0.0
25/08:00pm 22.9 23.2 17.1 70 3.7 ESE 11 15 6 8 1014.3 1011.3 0.0
25/07:30pm 24.3 23.1 17.1 64 4.6 ESE 19 22 10 12 1013.6 1010.6 0.0
25/07:00pm 25.2 24.2 16.6 59 5.4 E 17 24 9 13 1013.2 1010.2 0.0
25/06:30pm 25.8 23.3 16.1 55 6.1 E 24 30 13 16 1012.9 1009.9 0.0
25/06:00pm 26.7 24.5 16.0 52 6.8 E 22 30 12 16 1012.6 1009.5 0.0
25/05:30pm 27.0 23.9 15.7 50 7.1 E 26 35 14 19 1012.3 1009.3 0.0
25/05:28pm 26.9 24.1 15.3 49 7.2 E 24 35 13 19 1012.3 1009.3 0.0
25/05:00pm 32.0 27.5 2.1 15 15.5 W 15 28 8 15 1012.4 1009.4 0.0
25/04:30pm 32.3 27.6 3.3 16 15.3 NW 17 28 9 15 1012.4 1009.4 0.0
25/04:00pm 31.7 27.7 2.8 16 15.1 NW 13 30 7 16 1012.8 1009.8 0.0
25/03:30pm 32.2 28.2 4.9 18 14.8 NW 15 26 8 14 1013.0 1010.0 0.0
25/03:00pm 32.5 29.3 6.7 20 14.4 NNW 13 22 7 12 1013.4 1010.4 0.0
25/02:30pm 31.5 29.1 8.5 24 13.2 N 11 20 6 11 1013.9 1011.0 0.0
25/02:00pm 29.3 28.8 13.9 39 9.5 N 9 15 5 8 1014.5 1011.5 0.0
25/01:30pm 27.9 27.3 13.4 40 8.8 NNE 9 20 5 11 1014.8 1011.8 0.0
25/01:00pm 27.9 26.6 14.9 45 8.1 NE 15 24 8 13 1015.1 1012.1 0.0
25/12:30pm 27.4 26.7 14.4 45 8.0 NNE 11 30 6 16 1015.6 1012.7 0.0
25/12:00pm 26.1 25.5 14.6 49 7.1 NNE 11 19 6 10 1016.0 1013.0 0.0
25/11:30am 26.2 25.8 14.0 47 7.4 N 9 20 5 11 1016.2 1013.2 0.0
25/11:00am 25.2 24.6 14.6 51 6.5 NNE 11 22 6 12 1016.4 1013.4 0.0
25/10:30am 24.6 24.8 15.8 58 5.5 NNE 9 19 5 10 1016.6 1013.7 0.0
25/10:02am 21.4 22.4 16.4 73 3.1 NNE 6 11 3 6 1016.9 1014.0 0.0
25/10:00am 21.1 21.9 15.9 72 3.2 NNE 6 11 3 6 1016.9 1014.0 0.0
25/09:30am 19.9 21.3 16.3 80 2.2 NNW 4 11 2 6 1017.0 1014.1 0.0
25/09:00am 18.9 20.3 16.3 85 1.6 NNE 4 7 2 4 1017.0 1014.1 0.2
25/08:30am 18.5 19.5 16.3 87 1.4 NE 6 9 3 5 1017.0 1014.1 0.2
25/08:00am 18.1 18.9 16.3 89 1.1 NE 7 13 4 7 1016.8 1013.9 0.2
25/07:30am 17.7 18.6 16.2 91 0.9 NE 6 9 3 5 1016.7 1013.8 0.2
25/07:00am 17.3 19.2 15.8 91 0.9 CALM 0 0 0 0 1016.6 1013.7 0.2
25/06:30am 16.9 18.6 15.1 89 1.1 CALM 0 2 0 1 1016.3 1013.3 0.2
25/06:00am 16.9 18.5 14.9 88 1.2 CALM 0 0 0 0 1016.0 1013.0 0.2
25/05:30am 16.8 18.4 14.8 88 1.2 CALM 0 0 0 0 1015.8 1012.8 0.2
25/05:00am 16.8 18.0 14.8 88 1.2 SE 2 4 1 2 1015.5 1012.6 0.2
25/04:30am 16.6 17.3 14.6 88 1.2 SE 4 6 2 3 1015.5 1012.6 0.2
25/04:00am 16.6 16.9 14.6 88 1.2 SSE 6 6 3 3 1015.6 1012.7 0.2
25/03:30am 16.5 17.2 14.5 88 1.2 SSE 4 7 2 4 1015.9 1012.9 0.2
25/03:00am 16.7 16.9 14.7 88 1.2 SSE 7 9 4 5 1016.2 1013.2 0.2
25/02:30am 16.6 16.8 14.8 89 1.1 SSE 7 9 4 5 1016.4 1013.4 0.2
25/02:00am 16.5 17.0 14.9 90 1.0 SSE 6 7 3 4 1016.6 1013.7 0.2
25/01:30am 16.3 16.7 14.7 90 0.9 S 6 7 3 4 1016.7 1013.8 0.2
25/01:00am 16.4 16.8 14.8 90 0.9 S 6 7 3 4 1016.8 1013.9 0.2
25/12:30am 16.4 16.6 14.8 90 1.0 SSE 7 9 4 5 1017.0 1014.1 0.2
25/12:00am 16.6 16.4 14.8 89 1.1 S 9 11 5 6 1017.4 1014.4 0.2
 
Date/Time
EDT
Temp
°C
App
Temp
°C
Dew
Point
°C
Rel
Hum
%
Delta-T
°C
Wind Press
QNH
hPa
Press
MSL
hPa
Rain since
9am
mm
Dir  Spd
km/h
Gust
km/h
Spd
kts
Gust
kts
24/11:38pm 16.8 16.6 14.8 88 1.2 SSE 9 13 5 7 1017.5 1014.5 0.2
24/11:30pm 16.7 16.5 14.7 88 1.2 SSE 9 15 5 8 1017.4 1014.4 0.2
24/11:00pm 17.0 16.4 14.5 85 1.5 SSE 11 15 6 8 1017.0 1014.1 0.2
24/10:48pm 17.2 16.5 14.3 83 1.7 SE 11 20 6 11 1017.1 1014.2 0.2
24/10:30pm 17.6 17.3 14.5 82 1.8 SE 9 15 5 8 1017.1 1014.2 0.2
24/10:00pm 17.8 17.5 14.3 80 2.1 SE 9 13 5 7 1016.8 1013.9 0.2
24/09:30pm 17.6 16.6 14.5 82 1.8 SE 13 17 7 9 1016.4 1013.4 0.2
24/09:08pm 17.4 16.4 14.5 83 1.7 ESE 13 17 7 9 1016.0 1013.0 0.2
24/09:00pm 17.4 16.3 14.3 82 1.8 ESE 13 22 7 12 1015.9 1012.9 0.2
24/08:45pm 17.7 15.8 14.2 80 2.1 ESE 17 22 9 12 1015.6 1012.7 0.2
24/08:30pm 18.0 16.1 14.1 78 2.3 SE 17 22 9 12 1015.2 1012.2 0.2
24/08:04pm 18.1 16.5 14.0 77 2.4 SE 15 22 8 12 1014.6 1011.6 0.2
24/08:00pm 18.2 16.6 13.9 76 2.5 SE 15 22 8 12 1014.5 1011.5 0.2
24/07:30pm 18.9 15.5 13.7 72 3.1 SE 24 30 13 16 1013.6 1010.6 0.2
24/07:00pm 20.0 16.2 13.5 66 3.8 ESE 26 33 14 18 1012.9 1009.9 0.2
24/06:30pm 21.3 17.4 13.2 60 4.8 ESE 26 33 14 18 1012.1 1009.1 0.2
24/06:00pm 23.1 19.3 12.4 51 6.3 SE 24 33 13 18 1011.8 1008.8 0.2
24/05:45pm 23.8 20.8 10.5 43 7.6 SSW 17 39 9 21 1011.6 1008.6 0.2
24/05:30pm 28.8 24.5 -1.3 14 14.4 NNW 11 22 6 12 1011.2 1008.1 0.2
24/05:00pm 28.2 22.5 -0.9 15 14.0 NW 19 28 10 15 1011.2 1008.1 0.2
24/04:30pm 28.6 22.9 0.3 16 13.9 NW 20 41 11 22 1011.2 1008.1 0.2
24/04:00pm 28.8 23.3 0.5 16 14.0 NW 19 35 10 19 1011.1 1008.0 0.2
24/03:30pm 28.4 23.2 3.3 20 13.0 NW 20 37 11 20 1011.0 1007.9 0.2
24/03:00pm 27.9 22.7 3.6 21 12.6 NW 20 35 11 19 1011.4 1008.4 0.2
24/02:30pm 27.6 22.1 4.0 22 12.3 NW 22 37 12 20 1011.7 1008.7 0.2
24/02:00pm 27.6 22.9 5.2 24 11.9 NW 19 32 10 17 1011.7 1008.7 0.2
24/01:30pm 27.6 22.8 5.8 25 11.7 NW 20 33 11 18 1011.8 1008.8 0.2
24/01:00pm 26.6 22.7 5.5 26 11.2 WNW 15 28 8 15 1012.0 1009.0 0.2
24/12:30pm 25.6 21.1 6.3 29 10.3 WNW 19 26 10 14 1012.2 1009.2 0.2
24/12:00pm 24.9 19.1 6.1 30 10.0 W 26 37 14 20 1012.3 1009.3 0.2
24/11:30am 23.9 19.2 6.2 32 9.4 W 20 33 11 18 1012.4 1009.4 0.2
24/11:00am 22.8 18.7 6.1 34 8.8 WNW 17 28 9 15 1012.6 1009.5 0.2
24/10:30am 21.4 18.3 7.3 40 7.5 W 13 20 7 11 1012.4 1009.4 0.2
24/10:00am 21.1 18.6 8.0 43 7.1 NW 11 19 6 10 1012.6 1009.5 0.0
24/09:30am 20.3 18.1 9.2 49 6.1 NW 11 19 6 10 1012.6 1009.5 0.0
24/09:00am 19.3 17.9 10.8 58 4.8 NNW 9 17 5 9 1012.4 1009.4 1.4
24/08:30am 17.8 16.5 11.1 65 3.7 NW 9 15 5 8 1012.4 1009.4 1.4
24/08:00am 17.0 17.3 12.1 73 2.8 NNW 2 9 1 5 1012.4 1009.4 1.4
24/07:30am 15.8 16.2 12.5 81 1.9 N 2 7 1 4 1011.8 1008.8 1.4
24/07:00am 14.7 15.4 12.2 85 1.4 CALM 0 2 0 1 1011.3 1008.3 1.4
24/06:30am 14.0 14.5 11.7 86 1.3 CALM 0 0 0 0 1010.3 1007.3 1.4
24/06:00am 14.5 14.3 11.7 83 1.6 NNW 4 6 2 3 1009.8 1006.7 1.4
24/05:30am 14.7 14.5 11.8 83 1.6 NNW 4 7 2 4 1009.6 1006.5 1.4
24/05:00am 15.1 14.7 12.4 84 1.5 NW 6 7 3 4 1009.2 1006.2 1.4
24/04:30am 15.1 14.8 12.6 85 1.4 NNW 6 7 3 4 1009.1 1006.1 1.4
24/04:00am 15.2 16.0 12.7 85 1.4 CALM 0 0 0 0 1009.0 1006.0 1.4
24/03:30am 15.7 16.6 12.8 83 1.7 CALM 0 0 0 0 1008.8 1005.8 1.4
24/03:00am 16.4 17.7 14.2 87 1.3 CALM 0 0 0 0 1008.7 1005.7 1.4
24/02:30am 16.5 17.9 14.5 88 1.2 CALM 0 0 0 0 1008.3 1005.2 1.4
24/02:00am 16.5 17.9 14.5 88 1.2 CALM 0 0 0 0 1007.9 1004.8 1.4
24/01:30am 16.6 17.9 14.2 86 1.4 CALM 0 0 0 0 1008.0 1004.9 1.4
24/01:00am 17.1 18.4 14.2 83 1.7 CALM 0 4 0 2 1007.8 1004.7 0.8
24/12:30am 17.5 17.8 13.4 77 2.4 NNW 4 9 2 5 1007.3 1004.3 0.2
24/12:00am 17.6 18.3 13.3 76 2.5 N 2 6 1 3 1007.9 1004.8 0.2
 
Date/Time
EDT
Temp
°C
App
Temp
°C
Dew
Point
°C
Rel
Hum
%
Delta-T
°C
Wind Press
QNH
hPa
Press
MSL
hPa
Rain since
9am
mm
Dir  Spd
km/h
Gust
km/h
Spd
kts
Gust
kts
23/11:30pm 18.5 18.1 12.9 70 3.2 NNW 7 13 4 7 1007.5 1004.5 0.0
23/11:00pm 19.3 18.5 12.8 66 3.8 NW 9 19 5 10 1007.6 1004.6 0.0
23/10:30pm 20.6 17.5 11.5 56 5.2 WNW 19 28 10 15 1007.3 1004.3 0.0
23/10:00pm 20.6 18.4 12.1 58 4.9 WNW 15 26 8 14 1007.0 1003.9 0.0
23/09:30pm 20.8 17.7 12.2 58 5.0 WNW 20 30 11 16 1006.6 1003.5 0.0
23/09:00pm 21.5 17.1 11.8 54 5.6 WNW 26 35 14 19 1006.5 1003.4 0.0
23/08:49pm 21.8 17.0 11.8 53 5.8 WNW 28 46 15 25 1006.0 1003.0 0.0
23/08:30pm 22.6 18.2 11.7 50 6.3 W 26 35 14 19 1005.1 1002.0 0.0
23/08:00pm 23.8 20.2 10.5 43 7.6 WNW 20 26 11 14 1004.3 1001.2 0.0
23/07:30pm 24.4 19.7 10.7 42 7.9 W 26 35 14 19 1004.2 1001.1 0.0
23/07:00pm 26.3 22.3 9.2 34 9.7 NW 20 32 11 17 1003.6 1000.5 0.0
23/06:47pm 26.2 20.7 9.1 34 9.6 WNW 28 46 15 25 1003.4 1000.3 0.0
23/06:30pm 27.5 22.6 9.8 33 10.1 NW 26 43 14 23 1003.0 999.8 0.0
23/06:00pm 28.9 23.7 10.1 31 10.9 NW 28 43 15 23 1003.1 999.9 0.0
23/05:30pm 30.3 24.8 9.2 27 12.1 NW 28 56 15 30 1003.2 1000.0 0.0
23/05:01pm 30.0 23.6 9.5 28 11.8 NW 33 54 18 29 1002.6 999.5 0.0
23/05:00pm 29.9 23.1 9.4 28 11.9 NW 35 54 19 29 1002.6 999.5 0.0
23/04:30pm 30.6 23.7 8.9 26 12.4 NW 35 59 19 32 1002.3 999.2 0.0
23/04:00pm 31.6 25.2 9.2 25 13.0 NW 33 59 18 32 1002.1 999.0 0.0
23/03:30pm 31.2 21.6 9.4 26 12.6 WNW 50 76 27 41 1002.0 998.9 0.0
23/03:00pm 33.0 25.4 9.1 23 14.0 NW 39 82 21 44 1001.7 998.5 0.0
23/02:37pm 32.6 25.9 8.1 22 14.0 NW 33 83 18 45 1001.4 998.2 0.0
23/02:30pm 32.7 26.2 8.2 22 14.0 NW 32 50 17 27 1001.6 998.4 0.0
23/02:00pm 31.1 22.7 7.5 23 13.3 NW 41 80 22 43 1002.1 999.0 0.0
23/01:30pm 32.7 24.0 6.1 19 14.7 NW 41 69 22 37 1001.6 998.4 0.0
23/01:00pm 33.0 25.3 5.5 18 15.2 NW 35 63 19 34 1001.4 998.2 0.0
23/12:30pm 33.9 24.9 4.6 16 15.9 NW 41 65 22 35 1001.1 998.0 0.0
23/12:00pm 33.2 24.1 5.7 18 15.2 NW 43 69 23 37 1001.4 998.2 0.0
23/11:30am 33.8 24.8 4.5 16 15.9 NW 41 76 22 41 1001.2 998.1 0.0
23/11:00am 34.2 25.3 0.8 12 17.2 NNW 37 67 20 36 1000.8 997.7 0.0
23/10:30am 33.5 25.4 1.3 13 16.6 NNW 33 61 18 33 1000.9 997.8 0.0
23/10:00am 32.6 24.8 -0.5 12 16.5 NNW 30 54 16 29 1001.2 998.1 0.0
23/09:51am 32.3 24.9 -0.7 12 16.3 NNW 28 52 15 28 1001.4 998.2 0.0
23/09:30am 32.0 26.1 -0.9 12 16.2 NNW 20 37 11 20 1001.6 998.4 0.0
23/09:00am 29.7 24.4 -0.6 14 14.8 N 17 28 9 15 1001.9 998.8 0.0
23/08:30am 26.5 22.7 1.7 20 12.3 N 11 22 6 12 1002.3 999.2 0.0
23/08:00am 22.3 20.2 5.7 34 8.7 N 6 13 3 7 1003.0 999.8 0.0
23/07:30am 18.3 16.9 8.8 54 5.1 N 6 11 3 6 1003.3 1000.2 0.0
23/07:00am 17.4 16.6 9.8 61 4.2 N 4 9 2 5 1003.3 1000.2 0.0
23/06:30am 16.4 15.9 10.7 69 3.1 N 4 9 2 5 1003.5 1000.4 0.0
23/06:00am 15.1 15.4 10.9 76 2.3 CALM 0 2 0 1 1003.8 1000.7 0.0
23/05:30am 15.4 15.9 11.6 78 2.1 CALM 0 0 0 0 1004.1 1001.0 0.0
23/05:00am 15.4 15.9 11.6 78 2.1 CALM 0 0 0 0 1004.2 1001.1 0.0
23/04:30am 16.0 16.6 11.8 76 2.4 CALM 0 4 0 2 1004.7 1001.6 0.0
23/04:00am 15.6 16.1 11.6 77 2.2 CALM 0 0 0 0 1005.0 1001.9 0.0
23/03:30am 15.9 16.4 11.7 76 2.4 CALM 0 0 0 0 1005.6 1002.5 0.0
23/03:00am 16.4 16.8 11.3 72 2.9 CALM 0 0 0 0 1006.2 1003.1 0.0
23/02:30am 17.4 17.8 11.4 68 3.4 CALM 0 0 0 0 1006.5 1003.4 0.0
23/02:00am 18.7 18.9 12.0 65 3.8 N 2 4 1 2 1006.7 1003.6 0.0
23/01:30am 18.6 18.8 11.9 65 3.8 N 2 4 1 2 1007.1 1004.0 0.0
23/01:00am 19.6 19.6 12.4 63 4.2 N 4 7 2 4 1007.5 1004.5 0.0
23/12:30am 20.2 20.3 12.7 62 4.4 N 4 7 2 4 1007.8 1004.7 0.0
23/12:00am 20.8 21.0 13.0 61 4.6 N 4 11 2 6 1008.0 1004.9 0.0
 
Date/Time
EDT
Temp
°C
App
Temp
°C
Dew
Point
°C
Rel
Hum
%
Delta-T
°C
Wind Press
QNH
hPa
Press
MSL
hPa
Rain since
9am
mm
Dir  Spd
km/h
Gust
km/h
Spd
kts
Gust
kts
22/11:30pm 21.9 21.7 13.0 57 5.2 N 6 13 3 7 1008.0 1004.9 0.0
22/11:00pm 22.1 21.4 12.1 53 5.8 NNE 7 13 4 7 1008.0 1004.9 0.0
22/10:30pm 22.2 20.7 5.2 33 8.7 NNE 2 7 1 4 1008.1 1005.0 0.0
22/10:00pm 22.1 20.7 3.7 30 9.2 CALM 0 4 0 2 1007.9 1004.8 0.0

Latest Capital City Observations: Canberra | Sydney | Melbourne | Brisbane | Adelaide | Perth | Hobart | Darwin

Other formats

Comma delimited format used in spreadsheet applications
http://www.bom.gov.au/fwo/IDN60903/IDN60903.94927.axf

JavaScript Object Notation format (JSON) in row-major order
http://www.bom.gov.au/fwo/IDN60903/IDN60903.94927.json

Data quality

Most of these data are generated automatically and are frequently updated. Quality checks on data are not normally performed. It is possible for incorrect values to appear. Refer to information at About Latest Weather Observations and please check the disclaimer before using these data.